LDSP Airport Information

Runway Information
Runway 05 Length 8366 ft width 148 ft
Elevation 70 ft Threshold 0 ft Heading 53
Runway 23 Length 8366 ft Width 148 ft
Elevation 50 ft Threshold 525 ft Heading 233
Airport Frequencies
Type APP Name APP Frequency 120.875 MHZ
Type INFO Name INFO Frequency 128.675 MHZ
Type TWR Name TWR Frequency 124.675 MHZ
Airport Navaids
Type NDB Name Drvenik Frequency 418 KHZ
Type VOR-DME Name Split Frequency 115700 KHZ
Type NDB Name Trogir Frequency 378 KHZ
Airport Weather Information & NOTAM
ADDS - METARS form results

(2103 UTC 17 November 2018)
Data provider http://aviationweather.gov/metar/data/
 
METAR text: LDSP 172100Z 04015KT CAVOK 09/M04 Q1021 NOSIG
Conditions at: LDSP (SPLIT/KASTEL STA, HR) observed 2100 UTC 17 November 2018
Temperature: 9.0°C (48°F)
Dewpoint: -4.0°C (25°F) [RH = 40%]
Pressure (altimeter): 30.15 inches Hg (1021.0 mb)
Winds: from the NE (40 degrees) at 17 MPH (15 knots; 7.7 m/s)
Visibility: 6 or more miles (10+ km)
Ceiling: ceiling and visibility are OK
Clouds: unknown
Weather: no significant weather observed at this time

METAR text: LDSP 172030Z 03015KT CAVOK 09/M03 Q1021 NOSIG
Conditions at: LDSP (SPLIT/KASTEL STA, HR) observed 2030 UTC 17 November 2018
Temperature: 9.0°C (48°F)
Dewpoint: -3.0°C (27°F) [RH = 43%]
Pressure (altimeter): 30.15 inches Hg (1021.0 mb)
Winds: from the NNE (30 degrees) at 17 MPH (15 knots; 7.7 m/s)
Visibility: 6 or more miles (10+ km)
Ceiling: ceiling and visibility are OK
Clouds: unknown
Weather: no significant weather observed at this time

Forecast for: LDSP (SPLIT/KASTEL STA, HR)
Text: TAF LDSP 171725Z 1718/1818 05012KT CAVOK TX13/1812Z TN06/1805Z
Forecast period: 1800 UTC 17 November 2018 to 0900 UTC 18 November 2018
Forecast type: FROM: standard forecast or significant change
Winds: from the NE (50 degrees) at 14 MPH (12 knots; 6.2 m/s)
Visibility: 6 or more miles 10+ km)
Ceiling: unknown
Clouds: missing
Weather: no significant weather forecast for this period
Text: PROB40
Forecast period: 1800 UTC 17 November 2018 to 0600 UTC 18 November 2018
Forecast type: TEMPORARY: The following changes expected for less than half the time period
Winds: from the NE (40 degrees) at 17 MPH (15 knots; 7.7 m/s)
gusting to 29 MPH (25 knots; 12.9 m/s)
Visibility: missing
Ceiling: unknown
Clouds: missing
Weather: no significant weather forecast for this period
Text: TEMPO 1718/1806 04015G25KT
Forecast period: 0900 to 1800 UTC 18 November 2018
Forecast type: BECOMING: Conditions expected to become as follows by 1100 UTC 18 November 2018
Winds: from the ENE (70 degrees) at 9 MPH (8 knots; 4.1 m/s)
Visibility: 6 or more miles 10+ km)
Ceiling: unknown
Clouds: missing
Weather: no significant weather forecast for this period